createdAt,value
2023-09-09T00:00:51.135Z,18.67
2023-09-09T00:03:19.351Z,18.67
2023-09-09T00:05:46.263Z,18.61
2023-09-09T00:08:13.301Z,18.53
2023-09-09T00:10:40.319Z,18.55
2023-09-09T00:13:08.094Z,18.55
2023-09-09T00:15:35.208Z,18.51
2023-09-09T00:18:03.911Z,18.45
2023-09-09T00:20:35.537Z,18.48
2023-09-09T00:23:08.750Z,18.47
2023-09-09T00:25:40.511Z,18.46
2023-09-09T00:28:12.097Z,18.44
2023-09-09T00:30:39.859Z,18.40
2023-09-09T00:33:27.114Z,18.41
2023-09-09T00:35:54.024Z,18.40
2023-09-09T00:38:22.090Z,18.36
2023-09-09T00:41:12.980Z,18.33
2023-09-09T00:43:40.457Z,18.26
2023-09-09T00:46:10.772Z,18.23
2023-09-09T00:48:38.537Z,18.20
2023-09-09T00:51:11.526Z,18.17
2023-09-09T00:53:39.885Z,18.18
2023-09-09T00:56:07.574Z,18.22
2023-09-09T00:58:34.663Z,18.22
2023-09-09T01:01:04.245Z,18.22
2023-09-09T01:03:32.532Z,18.20
2023-09-09T01:06:01.312Z,18.14
2023-09-09T01:08:29.953Z,18.07
2023-09-09T01:10:57.312Z,17.99
2023-09-09T01:13:24.666Z,17.94
2023-09-09T01:15:54.960Z,17.89
2023-09-09T01:18:22.861Z,17.89
2023-09-09T01:20:59.588Z,17.87
2023-09-09T01:23:27.419Z,17.86
2023-09-09T01:25:54.374Z,17.87
2023-09-09T01:28:23.786Z,17.82
2023-09-09T01:30:51.400Z,17.81
2023-09-09T01:33:18.854Z,17.75
2023-09-09T01:35:46.685Z,17.70
2023-09-09T01:38:14.385Z,17.66
2023-09-09T01:40:41.474Z,17.64
2023-09-09T01:43:08.795Z,17.65
2023-09-09T01:45:36.786Z,17.65
2023-09-09T01:48:06.289Z,17.65
2023-09-09T01:50:33.612Z,17.61
2023-09-09T01:53:00.500Z,17.60
2023-09-09T01:55:27.524Z,17.60
2023-09-09T01:57:54.451Z,17.61
2023-09-09T02:00:21.653Z,17.58
2023-09-09T02:02:48.886Z,17.58
2023-09-09T02:05:16.154Z,17.51
2023-09-09T02:07:43.140Z,17.52
2023-09-09T02:10:13.305Z,17.49
2023-09-09T02:12:41.112Z,17.49
2023-09-09T02:15:12.460Z,17.44
2023-09-09T02:17:39.779Z,17.43
2023-09-09T02:20:07.470Z,17.42
2023-09-09T02:22:35.001Z,17.40
2023-09-09T02:25:02.242Z,17.35
2023-09-09T02:27:29.251Z,17.35
2023-09-09T02:29:56.149Z,17.34
2023-09-09T02:32:23.363Z,17.26
2023-09-09T02:34:51.850Z,17.23
2023-09-09T02:37:24.193Z,17.23
2023-09-09T02:39:52.514Z,17.20
2023-09-09T02:42:21.604Z,17.17
2023-09-09T02:44:52.134Z,17.14
2023-09-09T02:47:20.285Z,17.15
2023-09-09T02:49:51.277Z,17.13
2023-09-09T02:52:19.537Z,17.12
2023-09-09T02:54:46.575Z,17.09
2023-09-09T02:57:14.152Z,17.04
2023-09-09T02:59:41.534Z,16.97
2023-09-09T03:02:11.789Z,16.96
2023-09-09T03:04:39.405Z,16.90
2023-09-09T03:07:06.699Z,16.86
2023-09-09T03:09:34.322Z,16.89
2023-09-09T03:12:02.762Z,16.95
2023-09-09T03:14:30.333Z,16.91
2023-09-09T03:16:59.817Z,16.89
2023-09-09T03:19:27.445Z,16.90
2023-09-09T03:21:54.523Z,16.90
2023-09-09T03:24:21.581Z,16.91
2023-09-09T03:26:48.808Z,16.87
2023-09-09T03:29:15.883Z,16.82
2023-09-09T03:31:43.192Z,16.77
2023-09-09T03:34:10.213Z,16.74
2023-09-09T03:36:37.236Z,16.71
2023-09-09T03:39:04.839Z,16.67
2023-09-09T03:41:32.284Z,16.65
2023-09-09T03:43:59.344Z,16.66
2023-09-09T03:46:26.794Z,16.63
2023-09-09T03:48:54.776Z,16.64
2023-09-09T03:51:21.874Z,16.57
2023-09-09T03:53:49.069Z,16.56
2023-09-09T03:56:18.440Z,16.55
2023-09-09T03:58:45.673Z,16.52
2023-09-09T04:01:13.963Z,16.58
2023-09-09T04:03:42.698Z,16.61
2023-09-09T04:06:14.800Z,16.67
2023-09-09T04:08:43.397Z,16.66
2023-09-09T04:11:12.001Z,16.63
2023-09-09T04:13:40.118Z,16.58
2023-09-09T04:16:08.368Z,16.50
2023-09-09T04:18:45.491Z,16.47
2023-09-09T04:21:15.591Z,16.44
2023-09-09T04:23:42.715Z,16.41
2023-09-09T04:26:10.069Z,16.37
2023-09-09T04:28:37.203Z,16.34
2023-09-09T04:31:04.927Z,16.30
2023-09-09T04:33:34.219Z,16.29
2023-09-09T04:36:01.803Z,16.28
2023-09-09T04:38:28.741Z,16.24
2023-09-09T04:40:55.994Z,16.21
2023-09-09T04:43:23.216Z,16.15
2023-09-09T04:45:50.550Z,16.15
2023-09-09T04:48:17.675Z,16.13
2023-09-09T04:50:45.076Z,16.13
2023-09-09T04:53:12.782Z,16.11
2023-09-09T04:55:39.861Z,16.08
2023-09-09T04:58:11.492Z,16.01
2023-09-09T05:00:39.455Z,15.96
2023-09-09T05:03:06.478Z,15.93
2023-09-09T05:05:33.848Z,15.90
2023-09-09T05:08:00.850Z,15.90
2023-09-09T05:10:30.652Z,15.92
2023-09-09T05:12:57.666Z,16.00
2023-09-09T05:15:24.819Z,15.99
2023-09-09T05:17:51.913Z,15.99
2023-09-09T05:20:19.161Z,15.97
2023-09-09T05:22:46.097Z,16.00
2023-09-09T05:25:13.122Z,15.98
2023-09-09T05:27:41.913Z,15.96
2023-09-09T05:30:09.168Z,15.95
2023-09-09T05:32:36.640Z,16.01
2023-09-09T05:35:04.715Z,16.05
2023-09-09T05:37:33.416Z,16.10
2023-09-09T05:40:04.088Z,16.12
2023-09-09T05:42:32.016Z,16.20
2023-09-09T05:44:59.070Z,16.24
2023-09-09T05:47:26.769Z,16.31
2023-09-09T05:49:53.850Z,16.32
2023-09-09T05:52:21.004Z,16.36
2023-09-09T05:54:48.095Z,16.40
2023-09-09T05:57:15.049Z,16.43
2023-09-09T05:59:42.421Z,16.48
2023-09-09T06:02:11.348Z,16.52
2023-09-09T06:04:38.572Z,16.53
2023-09-09T06:07:06.016Z,16.57
2023-09-09T06:09:33.731Z,16.61
2023-09-09T06:12:02.111Z,16.66
2023-09-09T06:14:29.707Z,16.72
2023-09-09T06:16:57.924Z,16.78
2023-09-09T06:19:25.176Z,16.84
2023-09-09T06:21:53.177Z,16.90
2023-09-09T06:24:21.648Z,16.97
2023-09-09T06:26:49.144Z,17.02
2023-09-09T06:29:16.309Z,17.07
2023-09-09T06:31:44.102Z,17.15
2023-09-09T06:34:12.363Z,17.22
2023-09-09T06:36:39.349Z,17.24
2023-09-09T06:39:06.403Z,17.27
2023-09-09T06:41:33.437Z,17.36
2023-09-09T06:44:00.543Z,17.39
2023-09-09T06:46:27.477Z,17.44
2023-09-09T06:48:54.464Z,17.53
2023-09-09T06:51:21.369Z,17.61
2023-09-09T06:53:49.759Z,17.67
2023-09-09T06:56:18.853Z,17.74
2023-09-09T06:58:46.040Z,17.82
2023-09-09T07:01:13.209Z,17.88
2023-09-09T07:03:42.000Z,18.00
2023-09-09T07:06:09.587Z,18.09
2023-09-09T07:08:40.683Z,18.23
2023-09-09T07:11:08.332Z,18.34
2023-09-09T07:13:35.539Z,18.46
2023-09-09T07:16:02.985Z,18.57
2023-09-09T07:18:30.013Z,18.66
2023-09-09T07:21:00.970Z,18.77
2023-09-09T07:23:27.972Z,18.87
2023-09-09T07:25:55.151Z,18.97
2023-09-09T07:28:24.412Z,19.04
2023-09-09T07:30:52.707Z,19.20
2023-09-09T07:33:20.347Z,19.31
2023-09-09T07:35:47.537Z,19.44
2023-09-09T07:38:15.254Z,19.53
2023-09-09T07:43:11.158Z,19.70
2023-09-09T07:45:38.153Z,19.82
2023-09-09T07:48:06.321Z,19.89
2023-09-09T07:50:33.241Z,20.07
2023-09-09T07:53:00.342Z,20.15
2023-09-09T07:55:27.700Z,20.31
2023-09-09T07:57:55.941Z,20.46
2023-09-09T08:00:23.976Z,20.59
2023-09-09T08:02:51.186Z,20.72
2023-09-09T08:05:18.247Z,20.87
2023-09-09T08:07:45.254Z,21.00
2023-09-09T08:10:13.860Z,21.09
2023-09-09T08:12:41.323Z,21.19
2023-09-09T08:15:09.744Z,21.32
2023-09-09T08:17:37.056Z,21.43
2023-09-09T08:20:08.729Z,21.49
2023-09-09T08:22:36.485Z,21.58
2023-09-09T08:25:04.279Z,21.70
2023-09-09T08:27:31.300Z,21.76
2023-09-09T08:29:58.616Z,21.85
2023-09-09T08:32:25.917Z,21.98
2023-09-09T08:34:56.124Z,22.05
2023-09-09T08:37:23.505Z,22.12
2023-09-09T08:39:54.501Z,22.29
2023-09-09T08:42:46.719Z,22.37
2023-09-09T08:45:20.953Z,22.48
2023-09-09T08:47:49.335Z,22.50
2023-09-09T08:50:17.389Z,22.64
2023-09-09T08:52:45.412Z,22.79
2023-09-09T08:55:12.339Z,22.74
2023-09-09T08:57:39.964Z,22.90
2023-09-09T09:00:07.746Z,22.94
2023-09-09T09:02:35.749Z,23.10
2023-09-09T09:05:04.975Z,23.23
2023-09-09T09:07:33.714Z,23.41
2023-09-09T09:10:00.791Z,23.49
2023-09-09T09:12:29.656Z,23.72
2023-09-09T09:14:56.549Z,23.88
2023-09-09T09:17:25.011Z,24.05
2023-09-09T09:19:52.812Z,24.41
2023-09-09T09:22:19.820Z,24.93
2023-09-09T09:24:47.369Z,25.26
2023-09-09T09:27:15.616Z,25.23
2023-09-09T09:29:49.297Z,25.08
2023-09-09T09:32:17.693Z,25.31
2023-09-09T09:34:44.904Z,25.74
2023-09-09T09:37:13.165Z,26.15
2023-09-09T09:39:40.771Z,26.72
2023-09-09T09:42:11.621Z,27.43
2023-09-09T09:44:38.956Z,27.80
2023-09-09T09:47:07.804Z,27.55
2023-09-09T09:49:35.720Z,27.67
2023-09-09T09:52:04.511Z,28.87
2023-09-09T09:54:34.436Z,29.01
2023-09-09T09:57:03.081Z,28.58
2023-09-09T09:59:35.406Z,28.65
2023-09-09T10:02:04.487Z,29.45
2023-09-09T10:04:40.223Z,29.87
2023-09-09T10:07:11.796Z,30.29
2023-09-09T10:10:11.891Z,30.60
2023-09-09T10:12:48.984Z,30.42
2023-09-09T10:15:20.904Z,30.54
2023-09-09T10:17:50.938Z,30.58
2023-09-09T10:20:18.961Z,30.55
2023-09-09T10:22:49.055Z,30.77
2023-09-09T10:25:16.648Z,31.01
2023-09-09T10:27:44.027Z,31.10
2023-09-09T10:30:11.863Z,31.31
2023-09-09T10:32:39.808Z,31.26
2023-09-09T10:35:08.096Z,30.81
2023-09-09T10:37:39.381Z,30.32
2023-09-09T10:40:08.387Z,30.90
2023-09-09T10:42:39.160Z,31.38
2023-09-09T10:45:32.335Z,31.04
2023-09-09T10:48:03.889Z,30.50
2023-09-09T10:50:46.384Z,30.53
2023-09-09T10:53:28.409Z,30.72
2023-09-09T10:56:00.416Z,30.58
2023-09-09T10:58:39.123Z,31.56
2023-09-09T11:01:10.912Z,31.64
2023-09-09T11:03:50.514Z,31.99
2023-09-09T11:06:33.170Z,32.08
2023-09-09T11:09:03.831Z,32.25
2023-09-09T11:11:36.483Z,32.66
2023-09-09T11:14:05.679Z,32.53
2023-09-09T11:16:42.583Z,32.61
2023-09-09T11:19:14.367Z,30.71
2023-09-09T11:21:54.255Z,31.24
2023-09-09T11:24:21.536Z,30.91
2023-09-09T11:26:50.086Z,31.06
2023-09-09T11:29:30.255Z,32.24
2023-09-09T11:32:04.356Z,32.46
2023-09-09T11:34:34.126Z,32.49
2023-09-09T11:37:04.989Z,32.39
2023-09-09T11:39:42.865Z,31.56
2023-09-09T11:42:10.037Z,32.85
2023-09-09T11:44:42.206Z,33.30
2023-09-09T11:47:09.838Z,33.64
2023-09-09T11:49:40.911Z,33.06
2023-09-09T11:52:08.062Z,31.83
2023-09-09T11:54:35.269Z,32.47
2023-09-09T11:57:10.152Z,32.76
2023-09-09T11:59:51.582Z,31.91
2023-09-09T12:02:23.175Z,32.14
2023-09-09T12:04:58.629Z,32.12
2023-09-09T12:07:37.020Z,31.96
2023-09-09T12:10:06.683Z,31.37
2023-09-09T12:12:34.172Z,32.49
2023-09-09T12:15:02.348Z,32.64
2023-09-09T12:17:30.389Z,32.70
2023-09-09T12:19:58.534Z,32.00
2023-09-09T12:22:36.404Z,32.25
2023-09-09T12:25:08.444Z,31.95
2023-09-09T12:27:45.122Z,32.26
2023-09-09T12:30:41.348Z,32.01
2023-09-09T12:33:10.934Z,32.93
2023-09-09T12:35:49.264Z,33.22
2023-09-09T12:38:18.639Z,32.05
2023-09-09T12:40:51.531Z,32.10
2023-09-09T12:43:28.466Z,31.83
2023-09-09T12:46:03.691Z,32.15
2023-09-09T12:48:30.779Z,33.24
2023-09-09T12:50:57.633Z,33.90
2023-09-09T12:53:24.722Z,33.31
2023-09-09T12:55:51.661Z,33.64
2023-09-09T12:58:18.821Z,34.40
2023-09-09T13:00:45.736Z,33.79
2023-09-09T13:03:14.989Z,34.08
2023-09-09T13:05:42.381Z,34.44
2023-09-09T13:08:09.464Z,34.71
2023-09-09T13:10:36.465Z,32.80
2023-09-09T13:13:03.515Z,32.82
2023-09-09T13:15:30.640Z,32.19
2023-09-09T13:17:57.696Z,33.07
2023-09-09T13:20:24.847Z,33.45
2023-09-09T13:22:51.864Z,33.38
2023-09-09T13:25:18.967Z,32.49
2023-09-09T13:27:46.107Z,32.42
2023-09-09T13:30:13.311Z,32.08
2023-09-09T13:32:42.255Z,31.90
2023-09-09T13:35:09.995Z,33.30
2023-09-09T13:37:37.208Z,33.95
2023-09-09T13:40:04.705Z,34.21
2023-09-09T13:42:33.205Z,34.23
2023-09-09T13:45:10.616Z,34.26
2023-09-09T13:47:40.188Z,34.41
2023-09-09T13:50:08.487Z,33.66
2023-09-09T13:52:35.492Z,34.18
2023-09-09T13:55:04.790Z,33.90
2023-09-09T13:57:33.666Z,34.14
2023-09-09T14:00:01.386Z,32.92
2023-09-09T14:02:29.937Z,32.13
2023-09-09T14:04:57.097Z,32.34
2023-09-09T14:07:24.155Z,32.58
2023-09-09T14:09:51.067Z,31.75
2023-09-09T14:12:17.997Z,31.32
2023-09-09T14:14:44.904Z,31.11
2023-09-09T14:17:12.079Z,31.17
2023-09-09T14:19:39.938Z,30.63
2023-09-09T14:22:07.007Z,30.10
2023-09-09T14:24:33.945Z,29.85
2023-09-09T14:27:01.169Z,30.53
2023-09-09T14:29:28.098Z,30.66
2023-09-09T14:31:55.260Z,30.29
2023-09-09T14:34:22.155Z,29.63
2023-09-09T14:36:49.165Z,29.84
2023-09-09T14:39:16.181Z,29.86
2023-09-09T14:41:43.456Z,29.49
2023-09-09T14:44:10.338Z,29.20
2023-09-09T14:46:37.562Z,29.45
2023-09-09T14:49:05.631Z,29.39
2023-09-09T14:51:34.451Z,29.24
2023-09-09T14:54:05.790Z,28.92
2023-09-09T14:56:33.428Z,28.66
2023-09-09T14:59:00.361Z,28.71
2023-09-09T15:01:27.708Z,28.40
2023-09-09T15:03:54.668Z,28.35
2023-09-09T15:06:22.976Z,28.42
2023-09-09T15:08:52.651Z,28.49
2023-09-09T15:11:21.213Z,28.43
2023-09-09T15:13:49.950Z,28.29
2023-09-09T15:16:21.304Z,28.31
2023-09-09T15:18:48.711Z,28.26
2023-09-09T15:21:16.808Z,28.21
2023-09-09T15:23:43.808Z,28.01
2023-09-09T15:26:11.074Z,27.98
2023-09-09T15:28:38.187Z,27.69
2023-09-09T15:31:06.845Z,27.63
2023-09-09T15:33:34.000Z,27.61
2023-09-09T15:36:01.138Z,27.76
2023-09-09T15:38:28.955Z,27.81
2023-09-09T15:40:56.257Z,27.81
2023-09-09T15:43:23.424Z,27.76
2023-09-09T15:45:53.307Z,27.73
2023-09-09T15:48:20.529Z,27.75
2023-09-09T15:50:47.460Z,27.74
2023-09-09T15:53:14.428Z,27.70
2023-09-09T15:55:44.928Z,27.59
2023-09-09T15:58:12.320Z,27.44
2023-09-09T16:00:39.708Z,27.30
2023-09-09T16:03:06.936Z,27.26
2023-09-09T16:05:34.772Z,27.22
2023-09-09T16:08:01.980Z,27.15
2023-09-09T16:10:29.435Z,27.11
2023-09-09T16:12:58.900Z,27.01
2023-09-09T16:15:26.074Z,26.93
2023-09-09T16:17:53.096Z,26.87
2023-09-09T16:20:20.165Z,26.84
2023-09-09T16:22:47.293Z,26.80
2023-09-09T16:25:14.511Z,26.78
2023-09-09T16:27:42.401Z,26.74
2023-09-09T16:30:11.811Z,26.65
2023-09-09T16:32:39.320Z,26.58
2023-09-09T16:35:07.472Z,26.47
2023-09-09T16:37:35.716Z,26.47
2023-09-09T16:40:02.920Z,26.52
2023-09-09T16:42:29.896Z,26.48
2023-09-09T16:44:56.963Z,26.45
2023-09-09T16:47:24.000Z,26.41
2023-09-09T16:49:52.247Z,26.32
2023-09-09T16:52:19.286Z,26.22
2023-09-09T16:54:46.357Z,26.16
2023-09-09T16:57:13.349Z,26.07
2023-09-09T16:59:41.147Z,26.00
2023-09-09T17:02:08.894Z,25.95
2023-09-09T17:04:36.062Z,25.89
2023-09-09T17:07:03.665Z,25.81
2023-09-09T17:09:31.720Z,25.74
2023-09-09T17:11:58.732Z,25.66
2023-09-09T17:14:25.642Z,25.60
2023-09-09T17:16:52.619Z,25.45
2023-09-09T17:19:19.670Z,25.43
2023-09-09T17:21:46.696Z,25.35
2023-09-09T17:24:13.848Z,25.30
2023-09-09T17:26:41.149Z,25.20
2023-09-09T17:29:08.108Z,25.10
2023-09-09T17:31:35.235Z,25.02
2023-09-09T17:34:02.349Z,24.89
2023-09-09T17:36:30.325Z,24.77
2023-09-09T17:39:23.726Z,24.64
2023-09-09T17:41:52.893Z,24.53
2023-09-09T17:44:19.722Z,24.43
2023-09-09T17:46:46.913Z,24.34
2023-09-09T17:49:13.810Z,24.25
2023-09-09T17:51:40.877Z,24.15
2023-09-09T17:54:07.782Z,24.06
2023-09-09T17:56:35.384Z,23.98
2023-09-09T17:59:02.617Z,23.89
2023-09-09T18:01:29.617Z,23.76
2023-09-09T18:03:58.244Z,23.57
2023-09-09T18:06:25.414Z,23.42
2023-09-09T18:08:53.146Z,23.37
2023-09-09T18:11:21.299Z,23.28
2023-09-09T18:13:49.006Z,23.23
2023-09-09T18:16:16.826Z,23.13
2023-09-09T18:18:43.901Z,23.06
2023-09-09T18:21:10.822Z,23.02
2023-09-09T18:23:38.399Z,22.95
2023-09-09T18:26:05.626Z,22.89
2023-09-09T18:28:33.191Z,22.84
2023-09-09T18:31:02.111Z,22.77
2023-09-09T18:33:29.669Z,22.70
2023-09-09T18:35:57.707Z,22.64
2023-09-09T18:38:25.298Z,22.56
2023-09-09T18:40:53.232Z,22.48
2023-09-09T18:43:21.018Z,22.40
2023-09-09T18:45:49.538Z,22.33
2023-09-09T18:48:17.585Z,22.23
2023-09-09T18:50:44.821Z,22.16
2023-09-09T18:53:11.886Z,22.11
2023-09-09T18:55:38.844Z,22.07
2023-09-09T18:58:05.900Z,21.98
2023-09-09T19:00:33.011Z,21.89
2023-09-09T19:03:01.741Z,21.82
2023-09-09T19:05:29.699Z,21.81
2023-09-09T19:07:56.921Z,21.78
2023-09-09T19:10:24.070Z,21.78
2023-09-09T19:12:51.036Z,21.77
2023-09-09T19:15:20.455Z,21.74
2023-09-09T19:17:47.552Z,21.72
2023-09-09T19:20:16.042Z,21.65
2023-09-09T19:22:43.482Z,21.64
2023-09-09T19:25:10.497Z,21.60
2023-09-09T19:27:37.519Z,21.55
2023-09-09T19:30:05.881Z,21.52
2023-09-09T19:32:33.487Z,21.46
2023-09-09T19:35:00.835Z,21.42
2023-09-09T19:37:28.048Z,21.40
2023-09-09T19:40:01.707Z,21.39
2023-09-09T19:42:29.480Z,21.36
2023-09-09T19:44:57.322Z,21.34
2023-09-09T19:47:26.553Z,21.31
2023-09-09T19:49:57.011Z,21.28
2023-09-09T19:52:24.178Z,21.25
2023-09-09T19:54:51.460Z,21.25
2023-09-09T19:57:18.537Z,21.26
2023-09-09T19:59:45.500Z,21.26
2023-09-09T20:02:13.391Z,21.39
2023-09-09T20:04:40.673Z,21.40
2023-09-09T20:07:07.767Z,21.43
2023-09-09T20:09:39.087Z,21.40
2023-09-09T20:12:06.766Z,21.46
2023-09-09T20:14:33.874Z,21.48
2023-09-09T20:17:00.962Z,21.44
2023-09-09T20:19:27.887Z,21.39
2023-09-09T20:21:55.019Z,21.32
2023-09-09T20:24:22.504Z,21.22
2023-09-09T20:26:50.155Z,21.15
2023-09-09T20:29:17.174Z,21.09
2023-09-09T20:31:44.112Z,21.05
2023-09-09T20:34:12.815Z,21.05
2023-09-09T20:36:39.805Z,21.09
2023-09-09T20:39:06.913Z,21.11
2023-09-09T20:41:36.136Z,21.12
2023-09-09T20:44:03.282Z,21.11
2023-09-09T20:46:30.311Z,21.10
2023-09-09T20:48:57.352Z,21.09
2023-09-09T20:51:24.262Z,21.09
2023-09-09T20:53:51.260Z,21.08
2023-09-09T20:56:19.057Z,21.04
2023-09-09T20:58:46.138Z,20.97
2023-09-09T21:01:13.350Z,20.90
2023-09-09T21:03:40.902Z,20.85
2023-09-09T21:06:08.524Z,20.79
2023-09-09T21:08:35.709Z,20.85
2023-09-09T21:11:02.679Z,20.82
2023-09-09T21:13:29.840Z,20.77
2023-09-09T21:15:56.998Z,20.72
2023-09-09T21:18:23.965Z,20.73
2023-09-09T21:20:51.070Z,20.70
2023-09-09T21:23:18.031Z,20.67
2023-09-09T21:25:44.989Z,20.66
2023-09-09T21:28:11.883Z,20.66
2023-09-09T21:30:41.024Z,20.65
2023-09-09T21:33:09.087Z,20.61
2023-09-09T21:35:36.158Z,20.61
2023-09-09T21:38:04.344Z,20.59
2023-09-09T21:40:31.486Z,20.58
2023-09-09T21:42:58.388Z,20.60
2023-09-09T21:45:25.485Z,20.63
2023-09-09T21:47:52.621Z,20.63
2023-09-09T21:50:19.819Z,20.67
2023-09-09T21:52:47.101Z,20.69
2023-09-09T21:55:14.074Z,20.70
2023-09-09T21:57:41.244Z,20.69
2023-09-09T22:00:21.525Z,20.60
2023-09-09T22:02:52.687Z,20.60
2023-09-09T22:05:21.071Z,20.55
2023-09-09T22:07:48.708Z,20.53
2023-09-09T22:10:15.801Z,20.55
2023-09-09T22:12:42.948Z,20.57
2023-09-09T22:15:13.200Z,20.58
2023-09-09T22:17:40.286Z,20.61
2023-09-09T22:20:09.945Z,20.59
2023-09-09T22:22:38.511Z,20.60
2023-09-09T22:25:10.675Z,20.61
2023-09-09T22:27:37.713Z,20.57
2023-09-09T22:30:07.041Z,20.54
2023-09-09T22:32:34.185Z,20.52
2023-09-09T22:35:07.322Z,20.50
2023-09-09T22:37:35.773Z,20.49
2023-09-09T22:40:03.185Z,20.47
2023-09-09T22:42:30.315Z,20.46
2023-09-09T22:44:57.316Z,20.49
2023-09-09T22:47:24.529Z,20.50
2023-09-09T22:49:53.652Z,20.58
2023-09-09T22:52:21.440Z,20.63
2023-09-09T22:54:48.602Z,20.66
2023-09-09T22:57:15.670Z,20.66
2023-09-09T22:59:42.944Z,20.73
2023-09-09T23:02:10.062Z,20.73
2023-09-09T23:04:37.198Z,20.74
2023-09-09T23:07:04.362Z,20.76
2023-09-09T23:09:31.870Z,20.70
2023-09-09T23:11:58.780Z,20.61
2023-09-09T23:14:25.869Z,20.57
2023-09-09T23:16:52.818Z,20.51
2023-09-09T23:19:19.745Z,20.45
2023-09-09T23:21:47.139Z,20.45
2023-09-09T23:24:14.044Z,20.41
2023-09-09T23:26:41.071Z,20.40
2023-09-09T23:29:07.984Z,20.40
2023-09-09T23:31:35.780Z,20.37
2023-09-09T23:34:03.394Z,20.52
2023-09-09T23:36:30.436Z,20.51
2023-09-09T23:39:05.296Z,20.59
2023-09-09T23:41:32.337Z,20.60
2023-09-09T23:43:59.277Z,20.62
2023-09-09T23:46:26.658Z,20.59
2023-09-09T23:48:53.581Z,20.60
2023-09-09T23:51:20.634Z,20.63
2023-09-09T23:53:47.752Z,20.72
2023-09-09T23:56:15.163Z,20.60
2023-09-09T23:58:42.287Z,20.54
